sensor_id;sensor_type;location;lat;lon;timestamp;P1;durP1;ratioP1;P2;durP2;ratioP2
65641;SDS011;52340;-6.720;108.544;2023-06-22T00:00:56;32.50;;;20.00;;
65641;SDS011;52340;-6.720;108.544;2023-06-22T00:01:58;29.92;;;19.00;;
65641;SDS011;52340;-6.720;108.544;2023-06-22T00:03:01;33.20;;;19.55;;
65641;SDS011;52340;-6.720;108.544;2023-06-22T00:04:06;29.13;;;18.80;;
65641;SDS011;52340;-6.720;108.544;2023-06-22T00:05:07;28.25;;;18.17;;
65641;SDS011;52340;-6.720;108.544;2023-06-22T00:06:09;31.77;;;19.60;;
65641;SDS011;52340;-6.720;108.544;2023-06-22T00:07:11;30.13;;;19.58;;
65641;SDS011;52340;-6.720;108.544;2023-06-22T00:08:13;31.83;;;20.50;;
65641;SDS011;52340;-6.720;108.544;2023-06-22T00:09:14;31.40;;;20.08;;
65641;SDS011;52340;-6.720;108.544;2023-06-22T00:10:16;31.80;;;21.20;;
65641;SDS011;52340;-6.720;108.544;2023-06-22T00:11:18;33.58;;;23.15;;
65641;SDS011;52340;-6.720;108.544;2023-06-22T00:12:20;35.65;;;23.88;;
65641;SDS011;52340;-6.720;108.544;2023-06-22T00:13:22;37.28;;;24.13;;
65641;SDS011;52340;-6.720;108.544;2023-06-22T00:14:23;41.55;;;25.30;;
65641;SDS011;52340;-6.720;108.544;2023-06-22T00:15:25;38.03;;;25.88;;
65641;SDS011;52340;-6.720;108.544;2023-06-22T00:16:27;40.33;;;26.73;;
65641;SDS011;52340;-6.720;108.544;2023-06-22T00:17:29;41.55;;;26.77;;
65641;SDS011;52340;-6.720;108.544;2023-06-22T00:18:32;40.00;;;26.58;;
65641;SDS011;52340;-6.720;108.544;2023-06-22T00:19:34;39.63;;;26.55;;
65641;SDS011;52340;-6.720;108.544;2023-06-22T00:20:36;36.50;;;25.88;;
65641;SDS011;52340;-6.720;108.544;2023-06-22T00:21:40;38.80;;;25.55;;
65641;SDS011;52340;-6.720;108.544;2023-06-22T00:22:47;42.10;;;25.65;;
65641;SDS011;52340;-6.720;108.544;2023-06-22T00:23:52;42.92;;;25.20;;
65641;SDS011;52340;-6.720;108.544;2023-06-22T00:24:53;36.95;;;23.50;;
65641;SDS011;52340;-6.720;108.544;2023-06-22T00:25:55;43.20;;;23.88;;
65641;SDS011;52340;-6.720;108.544;2023-06-22T00:26:57;37.53;;;22.50;;
65641;SDS011;52340;-6.720;108.544;2023-06-22T00:27:58;38.60;;;22.83;;
65641;SDS011;52340;-6.720;108.544;2023-06-22T00:29:00;36.28;;;21.75;;
65641;SDS011;52340;-6.720;108.544;2023-06-22T00:30:06;36.55;;;21.20;;
65641;SDS011;52340;-6.720;108.544;2023-06-22T00:31:09;35.20;;;21.52;;
65641;SDS011;52340;-6.720;108.544;2023-06-22T00:32:11;33.22;;;20.58;;
65641;SDS011;52340;-6.720;108.544;2023-06-22T00:33:12;35.42;;;20.98;;
65641;SDS011;52340;-6.720;108.544;2023-06-22T00:34:16;33.92;;;21.10;;
65641;SDS011;52340;-6.720;108.544;2023-06-22T00:35:18;33.03;;;20.95;;
65641;SDS011;52340;-6.720;108.544;2023-06-22T00:36:19;33.42;;;22.02;;
65641;SDS011;52340;-6.720;108.544;2023-06-22T00:37:21;32.45;;;20.63;;
65641;SDS011;52340;-6.720;108.544;2023-06-22T00:38:23;29.38;;;19.40;;
65641;SDS011;52340;-6.720;108.544;2023-06-22T00:39:25;31.95;;;20.42;;
65641;SDS011;52340;-6.720;108.544;2023-06-22T00:40:26;33.33;;;20.25;;
65641;SDS011;52340;-6.720;108.544;2023-06-22T00:41:28;30.77;;;20.10;;
65641;SDS011;52340;-6.720;108.544;2023-06-22T00:42:30;29.73;;;19.77;;
65641;SDS011;52340;-6.720;108.544;2023-06-22T00:43:32;30.88;;;19.48;;
65641;SDS011;52340;-6.720;108.544;2023-06-22T00:44:34;31.42;;;19.73;;
65641;SDS011;52340;-6.720;108.544;2023-06-22T00:45:36;33.28;;;19.17;;
65641;SDS011;52340;-6.720;108.544;2023-06-22T00:46:37;32.03;;;19.48;;
65641;SDS011;52340;-6.720;108.544;2023-06-22T00:47:39;33.42;;;20.40;;
65641;SDS011;52340;-6.720;108.544;2023-06-22T00:48:43;31.48;;;19.50;;
65641;SDS011;52340;-6.720;108.544;2023-06-22T00:49:51;32.17;;;19.70;;
65641;SDS011;52340;-6.720;108.544;2023-06-22T00:50:53;29.95;;;20.27;;
65641;SDS011;52340;-6.720;108.544;2023-06-22T00:51:55;31.38;;;19.30;;
65641;SDS011;52340;-6.720;108.544;2023-06-22T00:52:58;32.10;;;20.42;;
65641;SDS011;52340;-6.720;108.544;2023-06-22T00:54:01;30.88;;;20.15;;
65641;SDS011;52340;-6.720;108.544;2023-06-22T00:55:03;29.40;;;19.38;;
65641;SDS011;52340;-6.720;108.544;2023-06-22T00:56:05;33.72;;;20.30;;
65641;SDS011;52340;-6.720;108.544;2023-06-22T00:57:07;29.77;;;19.83;;
65641;SDS011;52340;-6.720;108.544;2023-06-22T00:58:09;30.00;;;19.95;;
65641;SDS011;52340;-6.720;108.544;2023-06-22T00:59:11;32.85;;;20.05;;
65641;SDS011;52340;-6.720;108.544;2023-06-22T01:00:13;34.65;;;20.92;;
65641;SDS011;52340;-6.720;108.544;2023-06-22T01:01:15;33.05;;;21.58;;
65641;SDS011;52340;-6.720;108.544;2023-06-22T01:02:16;36.30;;;21.70;;
65641;SDS011;52340;-6.720;108.544;2023-06-22T01:03:18;37.10;;;22.52;;
65641;SDS011;52340;-6.720;108.544;2023-06-22T01:04:21;35.97;;;21.98;;
65641;SDS011;52340;-6.720;108.544;2023-06-22T01:05:26;32.80;;;21.55;;
65641;SDS011;52340;-6.720;108.544;2023-06-22T01:06:32;32.13;;;20.35;;
65641;SDS011;52340;-6.720;108.544;2023-06-22T01:07:40;33.85;;;21.38;;
65641;SDS011;52340;-6.720;108.544;2023-06-22T01:08:46;37.40;;;22.15;;
65641;SDS011;52340;-6.720;108.544;2023-06-22T01:09:54;33.53;;;21.70;;
65641;SDS011;52340;-6.720;108.544;2023-06-22T01:11:00;35.97;;;20.98;;
65641;SDS011;52340;-6.720;108.544;2023-06-22T01:12:06;31.67;;;20.35;;
65641;SDS011;52340;-6.720;108.544;2023-06-22T01:13:15;35.67;;;19.85;;
65641;SDS011;52340;-6.720;108.544;2023-06-22T01:14:23;33.78;;;20.92;;
65641;SDS011;52340;-6.720;108.544;2023-06-22T01:15:28;30.65;;;20.73;;
65641;SDS011;52340;-6.720;108.544;2023-06-22T01:16:31;31.85;;;20.08;;
65641;SDS011;52340;-6.720;108.544;2023-06-22T01:17:35;33.55;;;19.80;;
65641;SDS011;52340;-6.720;108.544;2023-06-22T01:18:38;32.60;;;20.48;;
65641;SDS011;52340;-6.720;108.544;2023-06-22T01:19:44;34.80;;;20.98;;
65641;SDS011;52340;-6.720;108.544;2023-06-22T01:20:48;31.17;;;18.95;;
65641;SDS011;52340;-6.720;108.544;2023-06-22T01:21:51;29.83;;;18.45;;
65641;SDS011;52340;-6.720;108.544;2023-06-22T01:22:59;30.00;;;19.77;;
65641;SDS011;52340;-6.720;108.544;2023-06-22T01:24:11;26.38;;;15.90;;
65641;SDS011;52340;-6.720;108.544;2023-06-22T01:25:19;29.65;;;19.50;;
65641;SDS011;52340;-6.720;108.544;2023-06-22T01:26:24;32.05;;;19.50;;
65641;SDS011;52340;-6.720;108.544;2023-06-22T01:27:32;29.40;;;19.13;;
65641;SDS011;52340;-6.720;108.544;2023-06-22T01:28:43;31.38;;;19.15;;
65641;SDS011;52340;-6.720;108.544;2023-06-22T01:29:46;29.50;;;19.38;;
65641;SDS011;52340;-6.720;108.544;2023-06-22T01:30:49;33.53;;;19.40;;
65641;SDS011;52340;-6.720;108.544;2023-06-22T01:31:52;30.92;;;19.95;;
65641;SDS011;52340;-6.720;108.544;2023-06-22T01:32:55;34.08;;;19.88;;
65641;SDS011;52340;-6.720;108.544;2023-06-22T01:33:58;30.13;;;19.02;;
65641;SDS011;52340;-6.720;108.544;2023-06-22T01:35:03;34.78;;;19.77;;
65641;SDS011;52340;-6.720;108.544;2023-06-22T01:36:06;30.25;;;18.75;;
65641;SDS011;52340;-6.720;108.544;2023-06-22T01:37:08;29.92;;;19.30;;
65641;SDS011;52340;-6.720;108.544;2023-06-22T01:38:11;26.98;;;18.40;;
65641;SDS011;52340;-6.720;108.544;2023-06-22T01:39:13;27.83;;;18.02;;
65641;SDS011;52340;-6.720;108.544;2023-06-22T01:40:15;27.45;;;18.30;;
65641;SDS011;52340;-6.720;108.544;2023-06-22T01:41:16;28.20;;;17.73;;
65641;SDS011;52340;-6.720;108.544;2023-06-22T01:42:22;28.08;;;18.17;;
65641;SDS011;52340;-6.720;108.544;2023-06-22T01:43:26;27.08;;;17.77;;
65641;SDS011;52340;-6.720;108.544;2023-06-22T01:44:29;26.35;;;18.00;;
65641;SDS011;52340;-6.720;108.544;2023-06-22T01:45:31;27.55;;;17.33;;
65641;SDS011;52340;-6.720;108.544;2023-06-22T01:46:33;26.48;;;17.15;;
65641;SDS011;52340;-6.720;108.544;2023-06-22T01:47:35;27.98;;;17.15;;
65641;SDS011;52340;-6.720;108.544;2023-06-22T01:48:37;27.90;;;16.35;;
65641;SDS011;52340;-6.720;108.544;2023-06-22T01:49:40;25.20;;;15.93;;
65641;SDS011;52340;-6.720;108.544;2023-06-22T01:50:42;23.23;;;15.63;;
65641;SDS011;52340;-6.720;108.544;2023-06-22T01:51:44;23.80;;;15.85;;
65641;SDS011;52340;-6.720;108.544;2023-06-22T01:52:46;25.15;;;15.65;;
65641;SDS011;52340;-6.720;108.544;2023-06-22T01:53:48;21.98;;;15.25;;
65641;SDS011;52340;-6.720;108.544;2023-06-22T01:54:50;21.25;;;14.40;;
65641;SDS011;52340;-6.720;108.544;2023-06-22T01:55:52;20.17;;;14.13;;
65641;SDS011;52340;-6.720;108.544;2023-06-22T01:56:53;21.67;;;15.23;;
65641;SDS011;52340;-6.720;108.544;2023-06-22T01:57:55;20.27;;;13.80;;
65641;SDS011;52340;-6.720;108.544;2023-06-22T01:58:58;22.92;;;14.77;;
65641;SDS011;52340;-6.720;108.544;2023-06-22T02:00:06;19.15;;;13.77;;
65641;SDS011;52340;-6.720;108.544;2023-06-22T02:01:11;24.25;;;14.48;;
65641;SDS011;52340;-6.720;108.544;2023-06-22T02:02:13;21.08;;;13.88;;
65641;SDS011;52340;-6.720;108.544;2023-06-22T02:03:18;20.52;;;13.70;;
65641;SDS011;52340;-6.720;108.544;2023-06-22T02:04:30;21.33;;;13.13;;
65641;SDS011;52340;-6.720;108.544;2023-06-22T02:05:34;22.13;;;14.38;;
65641;SDS011;52340;-6.720;108.544;2023-06-22T02:06:39;19.42;;;12.85;;
65641;SDS011;52340;-6.720;108.544;2023-06-22T02:07:44;19.63;;;12.95;;
65641;SDS011;52340;-6.720;108.544;2023-06-22T02:08:51;20.77;;;12.40;;
65641;SDS011;52340;-6.720;108.544;2023-06-22T02:09:54;17.95;;;11.77;;
65641;SDS011;52340;-6.720;108.544;2023-06-22T02:10:57;20.80;;;11.77;;
65641;SDS011;52340;-6.720;108.544;2023-06-22T02:12:01;19.23;;;11.93;;
65641;SDS011;52340;-6.720;108.544;2023-06-22T02:13:05;17.33;;;11.45;;
65641;SDS011;52340;-6.720;108.544;2023-06-22T02:14:07;16.15;;;11.35;;
65641;SDS011;52340;-6.720;108.544;2023-06-22T02:15:11;19.85;;;12.10;;
65641;SDS011;52340;-6.720;108.544;2023-06-22T02:16:13;18.20;;;11.45;;
65641;SDS011;52340;-6.720;108.544;2023-06-22T02:17:18;15.75;;;11.27;;
65641;SDS011;52340;-6.720;108.544;2023-06-22T02:18:20;17.58;;;11.15;;
65641;SDS011;52340;-6.720;108.544;2023-06-22T02:19:22;15.80;;;11.25;;
65641;SDS011;52340;-6.720;108.544;2023-06-22T02:20:24;16.35;;;10.52;;
65641;SDS011;52340;-6.720;108.544;2023-06-22T02:21:28;17.08;;;11.02;;
65641;SDS011;52340;-6.720;108.544;2023-06-22T02:22:30;17.15;;;11.23;;
65641;SDS011;52340;-6.720;108.544;2023-06-22T02:23:32;16.83;;;11.23;;
65641;SDS011;52340;-6.720;108.544;2023-06-22T02:24:34;16.08;;;10.85;;
65641;SDS011;52340;-6.720;108.544;2023-06-22T02:25:36;16.75;;;11.32;;
65641;SDS011;52340;-6.720;108.544;2023-06-22T02:26:37;15.70;;;10.40;;
65641;SDS011;52340;-6.720;108.544;2023-06-22T02:27:40;16.90;;;11.45;;
65641;SDS011;52340;-6.720;108.544;2023-06-22T02:28:41;16.42;;;10.75;;
65641;SDS011;52340;-6.720;108.544;2023-06-22T02:29:43;16.23;;;10.88;;
65641;SDS011;52340;-6.720;108.544;2023-06-22T02:30:47;15.65;;;10.90;;
65641;SDS011;52340;-6.720;108.544;2023-06-22T02:31:48;16.60;;;11.10;;
65641;SDS011;52340;-6.720;108.544;2023-06-22T02:32:52;16.70;;;10.70;;
65641;SDS011;52340;-6.720;108.544;2023-06-22T02:33:54;16.55;;;10.57;;
65641;SDS011;52340;-6.720;108.544;2023-06-22T02:34:56;15.52;;;10.90;;
65641;SDS011;52340;-6.720;108.544;2023-06-22T02:35:57;17.50;;;11.25;;
65641;SDS011;52340;-6.720;108.544;2023-06-22T02:36:59;17.67;;;11.48;;
65641;SDS011;52340;-6.720;108.544;2023-06-22T02:38:01;18.35;;;11.23;;
65641;SDS011;52340;-6.720;108.544;2023-06-22T02:39:03;19.25;;;11.82;;
65641;SDS011;52340;-6.720;108.544;2023-06-22T02:40:06;16.85;;;11.75;;
65641;SDS011;52340;-6.720;108.544;2023-06-22T02:41:08;17.63;;;12.13;;
65641;SDS011;52340;-6.720;108.544;2023-06-22T02:42:10;19.60;;;12.50;;
65641;SDS011;52340;-6.720;108.544;2023-06-22T02:43:11;17.95;;;12.40;;
65641;SDS011;52340;-6.720;108.544;2023-06-22T02:44:16;17.48;;;12.65;;
65641;SDS011;52340;-6.720;108.544;2023-06-22T02:45:18;17.55;;;12.40;;
65641;SDS011;52340;-6.720;108.544;2023-06-22T02:46:21;18.30;;;12.48;;
65641;SDS011;52340;-6.720;108.544;2023-06-22T02:47:23;18.17;;;11.95;;
65641;SDS011;52340;-6.720;108.544;2023-06-22T02:48:25;16.50;;;11.88;;
65641;SDS011;52340;-6.720;108.544;2023-06-22T02:49:27;17.02;;;11.95;;
65641;SDS011;52340;-6.720;108.544;2023-06-22T02:50:28;18.42;;;11.82;;
65641;SDS011;52340;-6.720;108.544;2023-06-22T02:51:32;17.58;;;11.65;;
65641;SDS011;52340;-6.720;108.544;2023-06-22T02:52:34;17.02;;;11.57;;
65641;SDS011;52340;-6.720;108.544;2023-06-22T02:53:36;19.42;;;12.63;;
65641;SDS011;52340;-6.720;108.544;2023-06-22T02:54:38;19.65;;;12.80;;
65641;SDS011;52340;-6.720;108.544;2023-06-22T02:55:39;18.58;;;12.13;;
65641;SDS011;52340;-6.720;108.544;2023-06-22T02:56:41;17.80;;;12.05;;
65641;SDS011;52340;-6.720;108.544;2023-06-22T02:57:43;18.15;;;12.15;;
65641;SDS011;52340;-6.720;108.544;2023-06-22T02:58:44;17.15;;;11.25;;
65641;SDS011;52340;-6.720;108.544;2023-06-22T02:59:46;16.33;;;10.75;;
65641;SDS011;52340;-6.720;108.544;2023-06-22T03:00:48;17.85;;;11.30;;
65641;SDS011;52340;-6.720;108.544;2023-06-22T03:01:51;16.15;;;10.52;;
65641;SDS011;52340;-6.720;108.544;2023-06-22T03:02:53;17.00;;;10.93;;
65641;SDS011;52340;-6.720;108.544;2023-06-22T03:03:55;16.60;;;10.38;;
65641;SDS011;52340;-6.720;108.544;2023-06-22T03:04:57;17.83;;;11.35;;
65641;SDS011;52340;-6.720;108.544;2023-06-22T03:05:58;18.20;;;10.65;;
65641;SDS011;52340;-6.720;108.544;2023-06-22T03:07:00;20.38;;;11.40;;
65641;SDS011;52340;-6.720;108.544;2023-06-22T03:08:02;17.90;;;11.02;;
65641;SDS011;52340;-6.720;108.544;2023-06-22T03:09:04;17.95;;;11.02;;
65641;SDS011;52340;-6.720;108.544;2023-06-22T03:10:06;16.02;;;10.48;;
65641;SDS011;52340;-6.720;108.544;2023-06-22T03:11:09;17.92;;;10.63;;
65641;SDS011;52340;-6.720;108.544;2023-06-22T03:12:10;14.75;;;10.50;;
65641;SDS011;52340;-6.720;108.544;2023-06-22T03:13:12;16.25;;;10.45;;
65641;SDS011;52340;-6.720;108.544;2023-06-22T03:14:14;17.33;;;11.38;;
65641;SDS011;52340;-6.720;108.544;2023-06-22T03:15:16;16.45;;;10.77;;
65641;SDS011;52340;-6.720;108.544;2023-06-22T03:16:18;19.60;;;11.50;;
65641;SDS011;52340;-6.720;108.544;2023-06-22T03:17:22;17.45;;;11.95;;
65641;SDS011;52340;-6.720;108.544;2023-06-22T03:18:24;17.52;;;12.65;;
65641;SDS011;52340;-6.720;108.544;2023-06-22T03:19:26;18.27;;;12.75;;
65641;SDS011;52340;-6.720;108.544;2023-06-22T03:20:27;19.13;;;13.18;;
65641;SDS011;52340;-6.720;108.544;2023-06-22T03:21:29;19.38;;;12.90;;
65641;SDS011;52340;-6.720;108.544;2023-06-22T03:22:31;18.58;;;12.60;;
65641;SDS011;52340;-6.720;108.544;2023-06-22T03:23:33;17.48;;;12.60;;
65641;SDS011;52340;-6.720;108.544;2023-06-22T03:24:34;18.15;;;11.77;;
65641;SDS011;52340;-6.720;108.544;2023-06-22T03:25:36;15.93;;;11.32;;
65641;SDS011;52340;-6.720;108.544;2023-06-22T03:26:38;17.42;;;12.77;;
65641;SDS011;52340;-6.720;108.544;2023-06-22T03:27:40;18.65;;;12.57;;
65641;SDS011;52340;-6.720;108.544;2023-06-22T03:28:41;18.38;;;12.52;;
65641;SDS011;52340;-6.720;108.544;2023-06-22T03:29:43;17.83;;;12.70;;
65641;SDS011;52340;-6.720;108.544;2023-06-22T03:30:45;17.17;;;12.07;;
65641;SDS011;52340;-6.720;108.544;2023-06-22T03:31:46;16.98;;;11.50;;
65641;SDS011;52340;-6.720;108.544;2023-06-22T03:32:50;15.52;;;10.90;;
65641;SDS011;52340;-6.720;108.544;2023-06-22T03:33:54;18.58;;;10.65;;
65641;SDS011;52340;-6.720;108.544;2023-06-22T03:34:55;15.82;;;10.25;;
65641;SDS011;52340;-6.720;108.544;2023-06-22T03:35:57;17.27;;;10.70;;
65641;SDS011;52340;-6.720;108.544;2023-06-22T03:36:59;17.15;;;11.10;;
65641;SDS011;52340;-6.720;108.544;2023-06-22T03:38:01;17.00;;;10.77;;
65641;SDS011;52340;-6.720;108.544;2023-06-22T03:39:02;18.20;;;10.75;;
65641;SDS011;52340;-6.720;108.544;2023-06-22T03:40:05;18.92;;;10.38;;
65641;SDS011;52340;-6.720;108.544;2023-06-22T03:41:07;13.70;;;10.43;;
65641;SDS011;52340;-6.720;108.544;2023-06-22T03:42:09;16.10;;;11.00;;
65641;SDS011;52340;-6.720;108.544;2023-06-22T03:43:10;16.15;;;10.73;;
65641;SDS011;52340;-6.720;108.544;2023-06-22T03:44:12;16.42;;;11.00;;
65641;SDS011;52340;-6.720;108.544;2023-06-22T03:45:14;17.08;;;10.57;;
65641;SDS011;52340;-6.720;108.544;2023-06-22T03:46:15;17.45;;;11.15;;
65641;SDS011;52340;-6.720;108.544;2023-06-22T03:47:17;16.58;;;10.82;;
65641;SDS011;52340;-6.720;108.544;2023-06-22T03:48:21;17.45;;;11.30;;
65641;SDS011;52340;-6.720;108.544;2023-06-22T03:49:22;17.50;;;10.60;;
65641;SDS011;52340;-6.720;108.544;2023-06-22T03:50:24;19.13;;;10.98;;
65641;SDS011;52340;-6.720;108.544;2023-06-22T03:51:26;17.05;;;10.73;;
65641;SDS011;52340;-6.720;108.544;2023-06-22T03:52:27;18.40;;;10.98;;
65641;SDS011;52340;-6.720;108.544;2023-06-22T03:53:29;16.40;;;11.45;;
65641;SDS011;52340;-6.720;108.544;2023-06-22T03:54:31;17.38;;;11.20;;
65641;SDS011;52340;-6.720;108.544;2023-06-22T03:55:33;17.98;;;11.15;;
65641;SDS011;52340;-6.720;108.544;2023-06-22T03:56:35;19.45;;;11.10;;
65641;SDS011;52340;-6.720;108.544;2023-06-22T03:57:37;16.27;;;10.35;;
65641;SDS011;52340;-6.720;108.544;2023-06-22T03:58:38;14.63;;;10.70;;
65641;SDS011;52340;-6.720;108.544;2023-06-22T03:59:40;17.50;;;11.27;;
65641;SDS011;52340;-6.720;108.544;2023-06-22T04:00:42;14.75;;;10.80;;
65641;SDS011;52340;-6.720;108.544;2023-06-22T04:01:43;21.88;;;10.95;;
65641;SDS011;52340;-6.720;108.544;2023-06-22T04:02:45;21.30;;;11.05;;
65641;SDS011;52340;-6.720;108.544;2023-06-22T04:03:48;16.88;;;9.98;;
65641;SDS011;52340;-6.720;108.544;2023-06-22T04:04:50;16.02;;;10.35;;
65641;SDS011;52340;-6.720;108.544;2023-06-22T04:05:52;14.98;;;10.48;;
65641;SDS011;52340;-6.720;108.544;2023-06-22T04:06:54;18.95;;;10.63;;
65641;SDS011;52340;-6.720;108.544;2023-06-22T04:07:55;18.25;;;10.95;;
65641;SDS011;52340;-6.720;108.544;2023-06-22T04:08:57;16.85;;;10.60;;
65641;SDS011;52340;-6.720;108.544;2023-06-22T04:09:59;15.15;;;10.35;;
65641;SDS011;52340;-6.720;108.544;2023-06-22T04:11:00;16.05;;;10.65;;
65641;SDS011;52340;-6.720;108.544;2023-06-22T04:12:03;17.88;;;11.18;;
65641;SDS011;52340;-6.720;108.544;2023-06-22T04:13:05;22.40;;;10.93;;
65641;SDS011;52340;-6.720;108.544;2023-06-22T04:14:07;22.10;;;10.52;;
65641;SDS011;52340;-6.720;108.544;2023-06-22T04:15:09;20.90;;;11.40;;
65641;SDS011;52340;-6.720;108.544;2023-06-22T04:16:11;18.88;;;11.32;;
65641;SDS011;52340;-6.720;108.544;2023-06-22T04:17:13;20.67;;;11.65;;
65641;SDS011;52340;-6.720;108.544;2023-06-22T04:18:14;20.52;;;11.60;;
65641;SDS011;52340;-6.720;108.544;2023-06-22T04:19:18;17.17;;;11.00;;
65641;SDS011;52340;-6.720;108.544;2023-06-22T04:20:22;17.20;;;11.48;;
65641;SDS011;52340;-6.720;108.544;2023-06-22T04:21:26;20.75;;;11.68;;
65641;SDS011;52340;-6.720;108.544;2023-06-22T04:22:28;15.35;;;10.52;;
65641;SDS011;52340;-6.720;108.544;2023-06-22T04:23:29;18.00;;;11.35;;
65641;SDS011;52340;-6.720;108.544;2023-06-22T04:24:34;20.75;;;11.43;;
65641;SDS011;52340;-6.720;108.544;2023-06-22T04:25:35;19.65;;;10.93;;
65641;SDS011;52340;-6.720;108.544;2023-06-22T04:26:37;20.48;;;10.85;;
65641;SDS011;52340;-6.720;108.544;2023-06-22T04:27:39;16.90;;;10.93;;
65641;SDS011;52340;-6.720;108.544;2023-06-22T04:28:40;15.70;;;10.75;;
65641;SDS011;52340;-6.720;108.544;2023-06-22T04:29:42;20.02;;;11.10;;
65641;SDS011;52340;-6.720;108.544;2023-06-22T04:30:44;18.42;;;10.75;;
65641;SDS011;52340;-6.720;108.544;2023-06-22T04:31:45;19.27;;;10.93;;
65641;SDS011;52340;-6.720;108.544;2023-06-22T04:32:47;19.05;;;11.38;;
65641;SDS011;52340;-6.720;108.544;2023-06-22T04:33:49;18.27;;;11.52;;
65641;SDS011;52340;-6.720;108.544;2023-06-22T04:34:53;20.20;;;11.38;;
65641;SDS011;52340;-6.720;108.544;2023-06-22T04:35:55;17.90;;;11.63;;
65641;SDS011;52340;-6.720;108.544;2023-06-22T04:36:56;17.13;;;11.63;;
65641;SDS011;52340;-6.720;108.544;2023-06-22T04:37:58;20.45;;;12.00;;
65641;SDS011;52340;-6.720;108.544;2023-06-22T04:39:00;16.88;;;11.32;;
65641;SDS011;52340;-6.720;108.544;2023-06-22T04:40:02;19.85;;;12.02;;
65641;SDS011;52340;-6.720;108.544;2023-06-22T04:41:07;19.40;;;12.20;;
65641;SDS011;52340;-6.720;108.544;2023-06-22T04:42:08;18.27;;;12.75;;
65641;SDS011;52340;-6.720;108.544;2023-06-22T04:43:10;20.00;;;13.63;;
65641;SDS011;52340;-6.720;108.544;2023-06-22T04:44:12;18.73;;;13.48;;
65641;SDS011;52340;-6.720;108.544;2023-06-22T04:45:14;22.17;;;13.45;;
65641;SDS011;52340;-6.720;108.544;2023-06-22T04:46:18;18.88;;;13.32;;
65641;SDS011;52340;-6.720;108.544;2023-06-22T04:47:20;22.13;;;13.38;;
65641;SDS011;52340;-6.720;108.544;2023-06-22T04:48:22;22.70;;;13.43;;
65641;SDS011;52340;-6.720;108.544;2023-06-22T04:49:23;22.58;;;13.27;;
65641;SDS011;52340;-6.720;108.544;2023-06-22T04:50:27;19.27;;;12.95;;
65641;SDS011;52340;-6.720;108.544;2023-06-22T04:51:29;18.60;;;12.50;;
65641;SDS011;52340;-6.720;108.544;2023-06-22T04:52:30;19.85;;;12.50;;
65641;SDS011;52340;-6.720;108.544;2023-06-22T04:53:32;20.25;;;13.48;;
65641;SDS011;52340;-6.720;108.544;2023-06-22T04:54:37;19.50;;;13.00;;
65641;SDS011;52340;-6.720;108.544;2023-06-22T04:55:39;26.20;;;13.05;;
65641;SDS011;52340;-6.720;108.544;2023-06-22T04:56:41;21.95;;;13.05;;
65641;SDS011;52340;-6.720;108.544;2023-06-22T04:57:43;17.85;;;13.05;;
65641;SDS011;52340;-6.720;108.544;2023-06-22T04:58:44;20.75;;;13.65;;
65641;SDS011;52340;-6.720;108.544;2023-06-22T04:59:46;19.40;;;13.77;;
65641;SDS011;52340;-6.720;108.544;2023-06-22T05:00:48;24.52;;;14.05;;
65641;SDS011;52340;-6.720;108.544;2023-06-22T05:01:49;18.92;;;14.00;;
65641;SDS011;52340;-6.720;108.544;2023-06-22T05:02:51;23.50;;;14.32;;
65641;SDS011;52340;-6.720;108.544;2023-06-22T05:03:53;20.88;;;14.07;;
65641;SDS011;52340;-6.720;108.544;2023-06-22T05:04:57;20.08;;;14.32;;
65641;SDS011;52340;-6.720;108.544;2023-06-22T05:06:00;22.20;;;14.93;;
65641;SDS011;52340;-6.720;108.544;2023-06-22T05:07:02;23.42;;;14.88;;
65641;SDS011;52340;-6.720;108.544;2023-06-22T05:08:07;23.25;;;15.70;;
65641;SDS011;52340;-6.720;108.544;2023-06-22T05:09:09;23.30;;;15.15;;
65641;SDS011;52340;-6.720;108.544;2023-06-22T05:10:13;24.90;;;15.07;;
65641;SDS011;52340;-6.720;108.544;2023-06-22T05:11:15;20.35;;;15.02;;
65641;SDS011;52340;-6.720;108.544;2023-06-22T05:12:17;21.52;;;14.95;;
65641;SDS011;52340;-6.720;108.544;2023-06-22T05:13:19;27.35;;;14.35;;
65641;SDS011;52340;-6.720;108.544;2023-06-22T05:14:20;20.95;;;14.70;;
65641;SDS011;52340;-6.720;108.544;2023-06-22T05:15:22;18.48;;;13.85;;
65641;SDS011;52340;-6.720;108.544;2023-06-22T05:16:24;16.63;;;12.80;;
65641;SDS011;52340;-6.720;108.544;2023-06-22T05:17:28;17.77;;;12.65;;
65641;SDS011;52340;-6.720;108.544;2023-06-22T05:18:37;17.98;;;12.40;;
65641;SDS011;52340;-6.720;108.544;2023-06-22T05:19:42;17.67;;;12.75;;
65641;SDS011;52340;-6.720;108.544;2023-06-22T05:20:53;18.27;;;13.27;;
65641;SDS011;52340;-6.720;108.544;2023-06-22T05:22:06;18.42;;;13.38;;
65641;SDS011;52340;-6.720;108.544;2023-06-22T05:23:13;18.40;;;13.07;;
65641;SDS011;52340;-6.720;108.544;2023-06-22T05:24:20;16.45;;;12.40;;
65641;SDS011;52340;-6.720;108.544;2023-06-22T05:25:31;17.67;;;12.75;;
65641;SDS011;52340;-6.720;108.544;2023-06-22T05:26:33;16.70;;;11.68;;
65641;SDS011;52340;-6.720;108.544;2023-06-22T05:27:35;16.88;;;12.07;;
65641;SDS011;52340;-6.720;108.544;2023-06-22T05:28:37;18.80;;;12.38;;
65641;SDS011;52340;-6.720;108.544;2023-06-22T05:29:39;17.05;;;12.48;;
65641;SDS011;52340;-6.720;108.544;2023-06-22T05:30:40;17.00;;;12.63;;
65641;SDS011;52340;-6.720;108.544;2023-06-22T05:31:42;16.15;;;11.75;;
65641;SDS011;52340;-6.720;108.544;2023-06-22T05:32:46;16.55;;;11.32;;
65641;SDS011;52340;-6.720;108.544;2023-06-22T05:33:48;15.95;;;11.40;;
65641;SDS011;52340;-6.720;108.544;2023-06-22T05:34:51;14.63;;;10.63;;
65641;SDS011;52340;-6.720;108.544;2023-06-22T05:35:53;14.35;;;10.50;;
65641;SDS011;52340;-6.720;108.544;2023-06-22T05:36:55;16.55;;;11.15;;
65641;SDS011;52340;-6.720;108.544;2023-06-22T05:37:58;18.45;;;10.73;;
65641;SDS011;52340;-6.720;108.544;2023-06-22T05:39:00;17.67;;;10.55;;
65641;SDS011;52340;-6.720;108.544;2023-06-22T05:40:12;16.50;;;10.57;;
65641;SDS011;52340;-6.720;108.544;2023-06-22T05:41:14;14.23;;;10.40;;
65641;SDS011;52340;-6.720;108.544;2023-06-22T05:42:16;14.63;;;10.50;;
65641;SDS011;52340;-6.720;108.544;2023-06-22T05:43:18;18.15;;;10.82;;
65641;SDS011;52340;-6.720;108.544;2023-06-22T05:44:19;17.13;;;10.57;;
65641;SDS011;52340;-6.720;108.544;2023-06-22T05:45:23;15.98;;;10.23;;
65641;SDS011;52340;-6.720;108.544;2023-06-22T05:46:25;15.88;;;10.80;;
65641;SDS011;52340;-6.720;108.544;2023-06-22T05:47:27;16.48;;;10.80;;
65641;SDS011;52340;-6.720;108.544;2023-06-22T05:48:29;16.13;;;10.75;;
65641;SDS011;52340;-6.720;108.544;2023-06-22T05:49:30;19.45;;;10.93;;
65641;SDS011;52340;-6.720;108.544;2023-06-22T05:50:35;15.35;;;10.85;;
65641;SDS011;52340;-6.720;108.544;2023-06-22T05:51:37;17.33;;;10.82;;
65641;SDS011;52340;-6.720;108.544;2023-06-22T05:52:39;14.48;;;10.73;;
65641;SDS011;52340;-6.720;108.544;2023-06-22T05:53:42;17.02;;;11.55;;
65641;SDS011;52340;-6.720;108.544;2023-06-22T05:54:44;17.00;;;11.32;;
65641;SDS011;52340;-6.720;108.544;2023-06-22T05:55:46;16.15;;;11.25;;
65641;SDS011;52340;-6.720;108.544;2023-06-22T05:56:47;15.93;;;10.88;;